Delta Virtual Airport Information Service

Manaus Eduardo Gomes International Airport

ICAO: SBEG Country: Brazil
Latitude: -3.03861 Longitude: -60.0497
Latest Arrival : LAN3356 (1) (SBGR-SBEG) Latest Departure : DAC2054 (SBEG-TNCA)


WX CaptureLIVE
Data provided by noaa.gov | Fetched at 23:49:23

METAR : SBEG 120400Z 32001KT CAVOK 24/24 Q1012

TAF : SBEG 112052Z 1200/1224 24005KT 9999 SCT015 FEW025TCU TN23/1209Z TX29/1217Z BECMG 1200/1202 30005KT BECMG 1205/1207 BKN005 TEMPO 1207/1212 1000 BR BKN002 BECMG 1212/1214 21005KT BKN015 FEW025TCU TEMPO 1218/1221 4000 TSRA BKN012 FEW025CB RMK PHI


Runway Data for SBEG
Data provided by openaviationdata.com

Runway ID Mag Var Hdg Length Elevation Surface ILS Freq ILS Id ILS Slope
10 -13 103° 8854 ft 230 ft Asphalt 110.3 IEG 3
28 -13 283° 8854 ft 230 ft Asphalt -- -- --

Manaus Eduardo Gomes International Airport, Brazil
Use only for reference purposes



Not for navigational purposes.